Latest Weather Observations for King Island Airport

IDT60801

Issued at 7:35 pm EDT Saturday 1 November 2014 (issued every 30 minutes, with the page automatically refreshed every 10 minutes)

About weather observations | Map of weather stations | Latest weather observations for TAS | Other Formats
Station Details ID: 098017 Name: KING ISLAND AIRPORT Lat: -39.88 Lon: 143.88 Height: 37.0 m
Data from the previous 72 hours. | See also: Recent months at King Island Airport
Date/Time
EDT
Temp
°C
App
Temp
°C
Dew
Point
Rel
Hum
%
Delta-T
°C
Wind Press
QNH
hPa
Press
MSL
hPa
Rain
since 9 am
mm
Dir
 
Spd
km/h
Gust
km/h
Spd
kts
Gust
kts
01/07:33pm 9.0 1.9 5.4 78 1.6 WSW 32 54 17 29 1009.8 1009.8 3.0
01/07:30pm 8.9 1.6 5.3 78 1.6 WSW 33 48 18 26 1009.7 1009.7 3.0
01/07:00pm 9.9 0.3 3.6 65 2.8 WSW 43 61 23 33 1009.1 1009.1 2.6
01/06:30pm 9.9 1.2 2.0 58 3.3 WSW 37 56 20 30 1008.7 1008.7 2.6
01/06:00pm 10.2 0.1 1.6 55 3.6 WSW 44 65 24 35 1008.4 1008.4 2.6
01/05:30pm 10.0 0.4 4.4 68 2.5 WSW 44 70 24 38 1008.0 1008.0 2.4
01/05:15pm 9.1 -1.0 3.7 69 2.3 WSW 46 80 25 43 1007.9 1007.9 2.4
01/05:00pm 9.4 1.7 5.2 75 1.9 WSW 35 57 19 31 1007.4 1007.4 2.4
01/04:30pm 11.3 1.6 4.1 61 3.2 W 44 72 24 39 1007.1 1007.1 1.8
01/04:08pm 11.9 1.8 3.7 57 3.7 WSW 46 65 25 35 1006.6 1006.6 1.8
01/04:00pm 11.3 0.4 3.3 58 3.5 WSW 50 65 27 35 1006.6 1006.6 1.8
01/03:43pm 11.3 1.5 3.6 59 3.4 WSW 44 63 24 34 1006.4 1006.4 1.8
01/03:30pm 12.0 2.1 4.7 61 3.3 WSW 46 63 25 34 1006.3 1006.3 1.8
01/03:12pm 10.5 3.1 5.1 69 2.5 WSW 33 52 18 28 1006.0 1006.0 1.8
01/03:00pm 11.7 3.4 4.4 61 3.3 WSW 37 54 20 29 1006.1 1006.1 1.8
01/02:32pm 11.1 1.7 5.2 67 2.7 WSW 44 82 24 44 1005.8 1005.8 1.8
01/02:30pm 11.5 2.0 4.9 64 3.0 WSW 44 63 24 34 1005.6 1005.6 1.8
01/02:04pm 11.4 2.2 5.3 66 2.8 WSW 43 61 23 33 1005.5 1005.5 1.8
01/02:00pm 11.6 2.3 6.1 69 2.6 WSW 44 59 24 32 1005.5 1005.5 1.8
01/01:30pm 12.2 3.0 3.4 55 3.9 WSW 41 63 22 34 1004.9 1004.9 1.4
01/01:04pm 11.1 1.4 5.6 69 2.5 WSW 46 65 25 35 1004.7 1004.7 1.4
01/01:00pm 12.9 2.5 4.1 55 4.0 WSW 48 63 26 34 1004.4 1004.4 1.4
01/12:31pm 12.8 3.0 3.5 53 4.2 WSW 44 65 24 35 1003.9 1003.9 1.4
01/12:30pm 12.8 3.1 3.7 54 4.1 WSW 44 59 24 32 1004.0 1004.0 1.4
01/12:16pm 12.9 2.9 4.3 56 3.9 WSW 46 65 25 35 1003.8 1003.8 1.4
01/12:00pm 12.1 3.4 5.9 66 2.9 WSW 41 57 22 31 1003.6 1003.6 1.4
01/11:30am 9.8 0.7 5.8 76 1.8 WSW 43 65 23 35 1003.4 1003.4 1.4
01/11:00am 9.5 -0.9 6.0 79 1.6 WSW 50 72 27 39 1003.4 1003.4 1.2
01/10:30am 11.6 2.8 7.3 75 2.1 WSW 43 63 23 34 1002.4 1002.4 1.2
01/10:09am 12.3 4.2 8.6 78 1.8 W 41 59 22 32 1001.9 1001.9 1.2
01/10:07am 11.7 3.8 8.0 78 1.8 W 39 54 21 29 1001.9 1001.9 1.2
01/10:00am 11.4 4.3 8.1 80 1.6 WSW 35 48 19 26 1001.8 1001.8 1.2
01/09:48am 10.2 2.3 6.2 76 1.9 W 37 61 20 33 1001.9 1001.9 1.2
01/09:30am 12.2 3.9 7.7 74 2.2 W 41 56 22 30 1001.4 1001.4 0.0
01/09:04am 12.4 4.4 7.3 71 2.5 W 39 57 21 31 1001.1 1001.1 0.0
01/09:00am 12.6 4.9 7.3 70 2.6 W 37 54 20 29 1001.0 1001.0 2.0
01/08:41am 11.9 5.7 7.8 76 2.0 W 30 48 16 26 1000.8 1000.8 2.0
01/08:30am 11.7 4.9 7.6 76 2.0 W 33 50 18 27 1000.7 1000.7 2.0
01/08:20am 12.8 5.4 6.8 67 2.9 W 35 54 19 29 1000.6 1000.6 2.0
01/08:00am 12.0 4.2 6.7 70 2.5 W 37 54 20 29 1000.4 1000.4 2.0
01/07:53am 12.6 5.1 6.4 66 3.0 W 35 54 19 29 1000.3 1000.3 2.0
01/07:30am 12.0 4.0 5.9 66 2.9 W 37 54 20 29 1000.1 1000.1 2.0
01/07:23am 11.5 4.3 5.8 68 2.7 W 33 52 18 28 999.9 999.9 2.0
01/07:00am 11.7 4.2 6.4 70 2.5 WSW 35 48 19 26 999.7 999.7 2.0
01/06:35am 11.9 5.5 6.8 71 2.4 WSW 30 48 16 26 999.4 999.4 2.0
01/06:30am 11.7 4.9 6.8 72 2.3 WSW 32 46 17 25 999.3 999.3 2.0
01/06:00am 12.1 5.0 8.2 77 1.9 WSW 35 50 19 27 998.4 998.4 2.0
01/05:50am 11.9 5.0 8.7 81 1.6 WSW 35 54 19 29 998.2 998.2 2.0
01/05:30am 12.2 6.0 9.2 82 1.5 WSW 32 44 17 24 998.0 998.0 2.0
01/05:07am 11.6 4.0 9.0 84 1.3 WSW 39 57 21 31 997.6 997.6 2.0
01/05:00am 11.8 3.9 9.4 85 1.2 WSW 41 57 22 31 997.7 997.7 2.0
01/04:32am 12.1 5.7 10.8 92 0.7 WSW 35 54 19 29 997.3 997.3 2.0
01/04:30am 12.0 5.2 10.7 92 0.7 WSW 37 54 20 29 997.2 997.2 2.0
01/04:24am 12.0 5.2 10.7 92 0.7 WSW 37 52 20 28 997.3 997.3 2.0
01/04:22am 11.9 5.1 10.8 93 0.6 WSW 37 50 20 27 997.2 997.2 2.0
01/04:13am 12.0 4.5 10.9 93 0.6 WSW 41 54 22 29 997.0 997.0 2.0
01/04:07am 12.7 7.2 11.8 94 0.5 WNW 32 56 17 30 996.9 996.9 2.0
01/04:05am 13.3 8.4 12.4 94 0.5 WNW 30 41 16 22 996.9 996.9 1.8
01/04:00am 13.4 8.1 12.5 94 0.5 WNW 32 43 17 23 996.7 996.7 1.6
01/03:30am 13.2 7.8 12.3 94 0.5 WNW 32 41 17 22 997.0 997.0 1.6
01/03:00am 13.1 8.0 12.0 93 0.6 W 30 41 16 22 996.7 996.7 1.6
01/02:48am 13.0 8.7 11.9 93 0.6 W 26 35 14 19 996.6 996.6 1.6
01/02:30am 12.8 8.8 11.7 93 0.6 W 24 37 13 20 996.5 996.5 1.4
01/02:00am 13.1 9.6 12.2 94 0.5 W 22 30 12 16 996.5 996.5 1.2
01/01:30am 13.3 9.4 12.0 92 0.7 W 24 35 13 19 998.0 998.0 0.6
01/01:00am 13.8 10.0 12.4 91 0.8 WNW 24 35 13 19 998.7 998.7 0.0
01/12:30am 14.2 9.7 12.6 90 0.9 W 28 35 15 19 999.0 999.0 0.0
01/12:17am 14.2 9.8 12.8 91 0.8 W 28 35 15 19 998.2 998.2 0.0
01/12:00am 14.1 10.4 12.7 91 0.8 W 24 32 13 17 997.3 997.3 0.0
 
Date/Time
EDT
Temp
°C
App
Temp
°C
Dew
Point
Rel
Hum
%
Delta-T
°C
Wind Press
QNH
hPa
Press
MSL
hPa
Rain
since 9 am
mm
Dir
 
Spd
km/h
Gust
km/h
Spd
kts
Gust
kts
31/11:54pm 14.2 10.5 12.8 91 0.8 W 24 35 13 19 997.0 997.0 0.0
31/11:30pm 14.7 11.1 13.2 91 0.8 W 24 35 13 19 998.3 998.3 0.0
31/11:26pm 14.7 11.1 13.2 91 0.8 W 24 32 13 17 998.1 998.1 0.0
31/11:22pm 14.6 11.4 13.1 91 0.8 W 22 32 12 17 998.0 998.0 0.0
31/11:00pm 14.8 10.9 13.2 90 0.9 W 26 39 14 21 998.0 998.0 0.0
31/10:35pm 15.1 12.3 13.1 88 1.1 W 20 30 11 16 998.0 998.0 0.0
31/10:30pm 15.1 12.8 13.0 87 1.2 W 17 26 9 14 998.0 998.0 0.0
31/10:00pm 15.5 12.7 12.6 83 1.6 W 19 24 10 13 998.7 998.7 0.0
31/09:30pm 16.1 13.1 11.9 76 2.3 W 19 26 10 14 997.7 997.7 0.0
31/09:00pm 16.7 14.0 11.6 72 2.8 W 17 22 9 12 997.5 997.5 0.0
31/08:30pm 17.3 14.5 11.3 68 3.3 WNW 17 24 9 13 996.8 996.8 0.0
31/08:00pm 18.1 16.1 11.4 65 3.7 NNW 13 17 7 9 996.7 996.7 0.0
31/07:30pm 18.6 15.8 11.4 63 3.9 NNW 17 22 9 12 997.2 997.2 0.0
31/07:00pm 20.5 14.4 10.3 52 5.6 NW 33 52 18 28 997.3 997.3 0.0
31/06:54pm 21.9 16.2 9.8 46 6.5 NNW 30 52 16 28 997.2 997.2 0.0
31/06:30pm 23.6 17.7 7.7 36 8.4 N 28 35 15 19 996.6 996.6 0.0
31/06:00pm 23.8 17.6 7.8 36 8.5 N 30 37 16 20 996.9 996.9 0.0
31/05:30pm 25.8 18.3 7.9 32 9.6 N 37 48 20 26 997.3 997.3 0.0
31/05:00pm 26.4 20.9 10.5 37 9.0 N 30 39 16 21 997.8 997.8 0.0
31/04:35pm 26.0 20.8 11.7 41 8.2 N 30 48 16 26 998.1 998.1 0.0
31/04:30pm 25.4 20.6 10.4 39 8.4 N 26 35 14 19 998.2 998.2 0.0
31/04:00pm 25.4 19.5 11.2 41 8.1 N 33 48 18 26 998.5 998.5 0.0
31/03:30pm 24.8 19.2 10.3 40 8.0 N 30 43 16 23 999.2 999.2 0.0
31/03:00pm 23.5 19.5 13.1 52 6.0 NNE 26 35 14 19 999.9 999.9 0.0
31/02:30pm 22.3 17.4 12.5 53 5.6 NNE 30 35 16 19 1000.5 1000.5 0.0
31/02:00pm 21.6 16.5 11.9 54 5.5 NNE 30 39 16 21 1001.2 1001.2 0.0
31/01:30pm 20.2 14.9 12.4 61 4.4 NNE 32 39 17 21 1001.7 1001.7 0.0
31/01:00pm 19.5 15.0 13.9 70 3.2 NNE 30 41 16 22 1002.5 1002.5 0.0
31/12:30pm 18.2 13.5 13.3 73 2.8 NNE 30 35 16 19 1003.2 1003.2 0.0
31/12:00pm 17.6 12.6 13.5 77 2.3 NE 32 41 17 22 1003.9 1003.9 0.0
31/11:30am 16.7 11.5 12.8 78 2.2 NNE 32 37 17 20 1004.3 1004.3 0.0
31/11:00am 16.2 10.9 13.1 82 1.7 NNE 33 41 18 22 1004.8 1004.8 0.0
31/10:30am 15.3 9.5 12.8 85 1.4 NE 35 41 19 22 1005.2 1005.2 0.0
31/10:00am 14.9 10.1 12.9 88 1.1 NNE 30 37 16 20 1005.9 1005.9 0.0
31/09:30am 13.9 10.1 12.3 90 0.9 NE 24 33 13 18 1006.5 1006.5 0.0
31/09:00am 13.6 9.7 12.0 90 0.9 NNE 24 37 13 20 1007.1 1007.1 0.2
31/08:30am 13.3 10.2 11.5 89 1.0 N 19 26 10 14 1007.7 1007.7 0.2
31/08:00am 13.0 9.8 11.2 89 1.0 N 19 26 10 14 1007.9 1007.9 0.2
31/07:30am 12.6 10.5 11.0 90 0.8 N 13 17 7 9 1008.2 1008.3 0.2
31/07:00am 12.0 10.4 10.1 88 1.0 NNE 9 11 5 6 1008.3 1008.4 0.2
31/06:30am 12.5 9.3 10.0 85 1.3 N 17 22 9 12 1008.5 1008.6 0.2
31/06:00am 11.6 9.0 9.3 86 1.2 N 13 15 7 8 1008.4 1008.5 0.2
31/05:30am 11.2 8.8 8.8 85 1.2 NNE 11 13 6 7 1008.5 1008.6 0.2
31/05:00am 11.3 8.4 8.3 82 1.5 N 13 17 7 9 1008.8 1008.9 0.2
31/04:30am 12.1 8.6 8.8 80 1.6 NNW 17 22 9 12 1009.2 1009.3 0.2
31/04:00am 12.2 9.1 9.0 81 1.6 NNW 15 17 8 9 1009.7 1009.8 0.2
31/03:30am 12.3 8.5 9.1 81 1.6 NW 19 22 10 12 1010.4 1010.4 0.2
31/03:00am 11.7 8.1 8.4 80 1.6 WNW 17 19 9 10 1010.5 1010.5 0.2
31/02:30am 12.4 9.0 9.1 80 1.7 WNW 17 20 9 11 1010.9 1010.9 0.2
31/02:00am 12.2 9.1 8.7 79 1.7 WNW 15 20 8 11 1011.0 1011.0 0.2
31/01:30am 12.1 8.7 7.8 75 2.1 W 15 19 8 10 1011.5 1011.5 0.2
31/01:00am 13.0 9.3 7.9 71 2.5 W 17 22 9 12 1012.0 1012.0 0.2
31/12:30am 12.9 8.5 7.6 70 2.6 W 20 28 11 15 1012.4 1012.4 0.2
31/12:00am 13.3 9.0 8.0 70 2.6 W 20 30 11 16 1012.7 1012.7 0.2
 
Date/Time
EDT
Temp
°C
App
Temp
°C
Dew
Point
Rel
Hum
%
Delta-T
°C
Wind Press
QNH
hPa
Press
MSL
hPa
Rain
since 9 am
mm
Dir
 
Spd
km/h
Gust
km/h
Spd
kts
Gust
kts
30/11:30pm 13.2 9.1 8.7 74 2.3 W 20 32 11 17 1013.0 1013.0 0.2
30/11:00pm 12.9 9.3 8.2 73 2.3 W 17 24 9 13 1012.9 1012.9 0.2
30/10:30pm 13.1 9.2 9.5 79 1.8 W 20 28 11 15 1013.2 1013.2 0.2
30/10:00pm 13.0 8.4 9.6 80 1.7 W 24 32 13 17 1013.1 1013.1 0.2
30/09:30pm 13.4 9.7 10.0 80 1.8 WNW 20 28 11 15 1013.2 1013.2 0.2
30/09:00pm 13.4 9.7 10.0 80 1.8 WNW 20 28 11 15 1013.1 1013.1 0.2
30/08:30pm 13.3 9.7 9.9 80 1.8 WNW 19 26 10 14 1012.9 1012.9 0.2
30/08:00pm 13.1 9.8 9.4 78 1.9 WNW 17 22 9 12 1012.8 1012.8 0.2
30/07:30pm 13.7 9.9 9.7 77 2.1 W 20 32 11 17 1012.6 1012.6 0.2
30/07:00pm 14.0 10.1 9.6 75 2.3 W 20 30 11 16 1012.7 1012.7 0.2
30/06:30pm 14.2 9.7 10.0 76 2.2 W 24 32 13 17 1012.6 1012.6 0.2
30/06:00pm 14.2 10.5 10.2 77 2.1 W 20 32 11 17 1012.7 1012.7 0.2
30/05:30pm 13.9 9.0 9.9 77 2.1 W 26 33 14 18 1012.8 1012.8 0.2
30/05:00pm 15.5 10.0 10.5 72 2.6 W 30 41 16 22 1012.8 1012.8 0.2
30/04:30pm 15.2 9.2 10.0 71 2.7 W 32 39 17 21 1012.8 1012.8 0.2
30/04:00pm 15.7 9.8 10.5 71 2.8 WNW 32 39 17 21 1013.0 1013.0 0.2
30/03:30pm 15.4 9.5 10.4 72 2.6 WNW 32 39 17 21 1013.1 1013.1 0.2
30/03:00pm 15.1 10.8 10.9 76 2.2 W 24 33 13 18 1013.2 1013.2 0.2
30/02:30pm 15.0 8.9 9.8 71 2.7 WNW 32 41 17 22 1013.3 1013.3 0.2
30/02:00pm 15.3 9.4 10.5 73 2.5 W 32 39 17 21 1013.4 1013.4 0.2
30/01:30pm 15.5 10.1 10.9 74 2.4 WNW 30 37 16 20 1013.5 1013.5 0.2
30/01:00pm 14.9 10.2 10.5 75 2.3 WNW 26 33 14 18 1013.1 1013.1 0.2
30/12:30pm 14.0 8.1 10.6 80 1.8 WNW 32 39 17 21 1013.5 1013.5 0.2
30/12:00pm 13.0 8.9 11.4 90 0.8 W 24 35 13 19 1013.8 1013.8 0.2
30/11:59am 12.9 8.8 11.3 90 0.8 W 24 35 13 19 1013.8 1013.8 0.2
30/11:54am 12.5 7.9 10.9 90 0.8 W 26 35 14 19 1013.9 1013.9 0.2
30/11:42am 12.4 7.7 10.6 89 0.9 W 26 37 14 20 1013.9 1013.9 0.2
30/11:40am 12.4 7.7 10.6 89 0.9 W 26 37 14 20 1014.0 1014.0 0.2
30/11:39am 12.3 7.1 10.4 88 1.0 W 28 37 15 20 1014.0 1014.0 0.2
30/11:30am 13.2 7.7 10.4 83 1.5 WNW 30 39 16 21 1014.0 1014.0 0.2
30/11:00am 14.1 10.6 10.9 81 1.7 W 20 28 11 15 1013.7 1013.7 0.2
30/10:30am 14.2 9.6 11.2 82 1.6 W 26 37 14 20 1014.0 1014.0 0.0
30/10:00am 13.3 8.8 11.5 89 1.0 W 26 33 14 18 1013.9 1013.9 0.0
30/09:38am 12.4 7.8 11.0 91 0.7 W 26 37 14 20 1014.0 1014.0 0.0
30/09:30am 12.5 7.5 10.9 90 0.8 W 28 37 15 20 1014.0 1014.0 0.0
30/09:20am 12.3 7.5 10.2 87 1.1 W 26 37 14 20 1013.9 1013.9 0.0
30/09:00am 12.7 9.6 10.4 86 1.2 W 17 28 9 15 1013.9 1013.9 1.2
30/08:30am 12.2 7.7 9.9 86 1.2 W 24 33 13 18 1013.9 1013.9 1.2
30/08:00am 12.7 9.4 10.8 88 1.0 WNW 19 26 10 14 1013.5 1013.5 1.2
30/07:30am 12.5 8.9 10.4 87 1.1 WNW 20 28 11 15 1013.3 1013.3 1.2
30/07:00am 12.3 8.9 10.5 89 0.9 W 19 26 10 14 1013.2 1013.2 1.2
30/06:30am 12.0 8.6 10.4 90 0.8 W 19 28 10 15 1012.9 1012.9 1.2
30/06:00am 12.0 8.4 10.6 91 0.7 W 20 32 11 17 1012.9 1012.9 1.2
30/05:38am 11.2 6.6 9.8 91 0.7 W 24 37 13 20 1012.9 1012.9 1.2
30/05:30am 11.2 7.4 9.9 92 0.7 W 20 30 11 16 1012.8 1012.8 1.2
30/05:24am 11.3 6.4 9.9 91 0.7 W 26 37 14 20 1012.8 1012.8 1.2
30/05:00am 12.1 8.1 10.3 89 0.9 W 22 33 12 18 1012.1 1012.1 1.2
30/04:30am 11.9 8.3 10.6 92 0.7 W 20 28 11 15 1012.4 1012.4 1.2
30/04:00am 11.7 7.7 10.6 93 0.6 W 22 32 12 17 1012.8 1012.8 1.2
30/03:38am 11.3 7.9 10.4 94 0.5 WNW 19 28 10 15 1012.6 1012.6 1.2
30/03:30am 11.4 8.0 10.5 94 0.5 W 19 26 10 14 1012.8 1012.8 1.2
30/03:09am 11.6 6.8 10.3 92 0.7 W 26 33 14 18 1013.0 1013.0 1.0
30/03:00am 11.8 7.8 10.4 91 0.7 W 22 33 12 18 1012.9 1012.9 1.0
30/02:30am 12.2 7.5 10.6 90 0.8 WNW 26 35 14 19 1012.9 1012.9 1.0
30/02:00am 12.2 8.8 10.6 90 0.8 W 19 28 10 15 1013.3 1013.3 1.0
30/01:30am 11.7 7.3 10.4 92 0.7 W 24 41 13 22 1013.4 1013.4 1.0
30/01:01am 11.6 7.6 10.5 93 0.6 W 22 32 12 17 1013.7 1013.7 1.0
30/01:00am 11.6 7.6 10.5 93 0.6 W 22 28 12 15 1013.8 1013.8 1.0
30/12:30am 12.3 7.5 10.4 88 1.0 W 26 35 14 19 1013.9 1013.9 0.6
30/12:28am 12.4 7.7 10.5 88 1.0 W 26 35 14 19 1013.9 1013.9 0.6
30/12:00am 12.9 8.9 10.6 86 1.2 W 22 30 12 16 1014.0 1014.0 0.6
 
Date/Time
EDT
Temp
°C
App
Temp
°C
Dew
Point
Rel
Hum
%
Delta-T
°C
Wind Press
QNH
hPa
Press
MSL
hPa
Rain
since 9 am
mm
Dir
 
Spd
km/h
Gust
km/h
Spd
kts
Gust
kts
29/11:30pm 12.8 8.1 10.7 87 1.1 W 26 37 14 20 1014.4 1014.4 0.6
29/11:00pm 12.6 7.5 10.7 88 1.0 W 28 37 15 20 1014.4 1014.4 0.6
29/10:30pm 12.7 7.7 10.9 89 0.9 W 28 39 15 21 1014.6 1014.6 0.6
29/10:00pm 13.1 8.6 11.5 90 0.8 W 26 35 14 19 1014.6 1014.6 0.6
29/09:30pm 12.8 7.1 11.2 90 0.8 W 32 43 17 23 1014.6 1014.6 0.6
29/09:00pm 12.4 7.4 11.1 92 0.7 W 28 37 15 20 1014.4 1014.4 0.6
29/08:32pm 12.4 6.7 11.1 92 0.7 WNW 32 44 17 24 1014.2 1014.2 0.6
29/08:30pm 12.4 7.1 11.1 92 0.7 W 30 44 16 24 1014.3 1014.3 0.6
29/08:27pm 12.6 7.7 11.3 92 0.7 W 28 44 15 24 1014.4 1014.4 0.6
29/08:13pm 12.9 7.2 11.1 89 0.9 W 32 50 17 27 1014.4 1014.4 0.4
29/08:12pm 13.2 7.9 11.3 88 1.0 WNW 30 44 16 24 1014.4 1014.4 0.4
29/08:00pm 13.4 8.1 11.1 86 1.2 WNW 30 39 16 21 1014.2 1014.2 0.2

Other Formats:

Comma delimited format used in spreadsheet applications
http://www.bom.gov.au/fwo/IDT60801/IDT60801.94850.axf

JavaScript Object Notation format (JSON) in row-major order
http://www.bom.gov.au/fwo/IDT60801/IDT60801.94850.json